createdAt,value
2023-07-23T00:00:52.399Z,4.20
2023-07-23T00:01:52.346Z,3.40
2023-07-23T00:02:52.294Z,3.50
2023-07-23T00:03:52.228Z,3.50
2023-07-23T00:04:52.142Z,4.00
2023-07-23T00:05:52.101Z,3.40
2023-07-23T00:06:52.019Z,3.60
2023-07-23T00:07:51.957Z,3.40
2023-07-23T00:08:51.930Z,3.40
2023-07-23T00:09:51.847Z,3.70
2023-07-23T00:10:51.777Z,3.50
2023-07-23T00:11:51.717Z,3.30
2023-07-23T00:12:51.714Z,3.10
2023-07-23T00:13:51.589Z,3.30
2023-07-23T00:14:51.558Z,3.50
2023-07-23T00:15:51.531Z,4.10
2023-07-23T00:16:51.424Z,3.50
2023-07-23T00:17:51.416Z,3.20
2023-07-23T00:18:51.358Z,4.30
2023-07-23T00:19:51.244Z,3.50
2023-07-23T00:20:51.154Z,4.10
2023-07-23T00:21:51.099Z,3.20
2023-07-23T00:22:51.035Z,4.00
2023-07-23T00:23:51.006Z,3.40
2023-07-23T00:24:50.993Z,4.20
2023-07-23T00:25:50.853Z,3.90
2023-07-23T00:26:50.804Z,3.40
2023-07-23T00:27:50.734Z,3.20
2023-07-23T00:28:50.677Z,2.90
2023-07-23T00:29:50.605Z,3.00
2023-07-23T00:30:50.553Z,3.20
2023-07-23T00:31:50.525Z,3.50
2023-07-23T00:32:50.521Z,4.60
2023-07-23T00:33:50.381Z,3.10
2023-07-23T00:34:50.311Z,3.30
2023-07-23T00:35:50.240Z,3.60
2023-07-23T00:36:50.184Z,4.60
2023-07-23T00:37:50.121Z,3.90
2023-07-23T00:38:50.060Z,4.30
2023-07-23T00:39:50.001Z,3.00
2023-07-23T00:40:49.950Z,3.10
2023-07-23T00:41:49.893Z,2.80
2023-07-23T00:42:49.808Z,2.70
2023-07-23T00:43:49.748Z,3.80
2023-07-23T00:44:49.693Z,3.80
2023-07-23T00:45:49.650Z,3.30
2023-07-23T00:46:49.573Z,4.50
2023-07-23T00:47:49.535Z,3.60
2023-07-23T00:48:49.475Z,3.80
2023-07-23T00:49:49.386Z,3.30
2023-07-23T00:50:49.318Z,3.20
2023-07-23T00:51:49.271Z,3.20
2023-07-23T00:52:49.206Z,3.90
2023-07-23T00:53:49.144Z,3.40
2023-07-23T00:54:49.088Z,3.40
2023-07-23T00:55:49.056Z,3.60
2023-07-23T00:56:48.953Z,4.70
2023-07-23T00:57:48.881Z,5.00
2023-07-23T00:58:48.874Z,3.40
2023-07-23T00:59:48.763Z,3.40
2023-07-23T01:00:48.708Z,3.70
2023-07-23T01:01:48.684Z,4.10
2023-07-23T01:02:48.607Z,3.70
2023-07-23T01:03:48.590Z,4.30
2023-07-23T01:04:48.515Z,3.60
2023-07-23T01:05:48.435Z,4.40
2023-07-23T01:06:48.358Z,4.20
2023-07-23T01:07:48.287Z,3.80
2023-07-23T01:08:48.222Z,3.80
2023-07-23T01:09:48.188Z,4.20
2023-07-23T01:10:48.099Z,3.70
2023-07-23T01:11:48.050Z,3.80
2023-07-23T01:12:47.985Z,4.70
2023-07-23T01:13:47.918Z,3.80
2023-07-23T01:14:47.857Z,4.30
2023-07-23T01:15:47.828Z,4.30
2023-07-23T01:16:47.739Z,4.60
2023-07-23T01:17:47.797Z,3.30
2023-07-23T01:18:47.651Z,3.90
2023-07-23T01:19:47.564Z,3.50
2023-07-23T01:20:47.505Z,3.60
2023-07-23T01:21:47.484Z,3.90
2023-07-23T01:22:47.398Z,3.40
2023-07-23T01:23:47.298Z,3.80
2023-07-23T01:24:47.287Z,4.00
2023-07-23T01:25:47.176Z,3.80
2023-07-23T01:26:47.126Z,3.80
2023-07-23T01:27:47.072Z,3.60
2023-07-23T01:28:46.996Z,3.70
2023-07-23T01:29:46.919Z,3.40
2023-07-23T01:30:46.908Z,4.40
2023-07-23T01:31:46.807Z,4.50
2023-07-23T01:32:46.795Z,3.90
2023-07-23T01:33:46.680Z,4.00
2023-07-23T01:34:46.625Z,3.80
2023-07-23T01:35:46.569Z,5.30
2023-07-23T01:36:46.504Z,4.00
2023-07-23T01:37:46.506Z,5.10
2023-07-23T01:38:46.372Z,5.10
2023-07-23T01:39:46.334Z,4.10
2023-07-23T01:40:46.262Z,4.60
2023-07-23T01:41:46.245Z,3.80
2023-07-23T01:42:46.159Z,4.10
2023-07-23T01:43:46.094Z,3.60
2023-07-23T01:44:46.002Z,3.40
2023-07-23T01:45:45.989Z,4.00
2023-07-23T01:46:45.924Z,3.90
2023-07-23T01:47:45.851Z,3.90
2023-07-23T01:48:45.784Z,3.90
2023-07-23T01:49:45.706Z,3.70
2023-07-23T01:50:45.650Z,4.10
2023-07-23T01:51:45.595Z,4.00
2023-07-23T01:52:45.510Z,3.60
2023-07-23T01:53:45.452Z,4.30
2023-07-23T01:54:45.401Z,3.90
2023-07-23T01:55:45.354Z,4.00
2023-07-23T01:56:45.280Z,4.20
2023-07-23T01:57:45.227Z,5.50
2023-07-23T01:58:45.138Z,4.20
2023-07-23T01:59:45.103Z,4.50
2023-07-23T02:00:45.061Z,4.60
2023-07-23T02:01:44.961Z,4.10
2023-07-23T02:02:45.009Z,5.30
2023-07-23T02:03:44.871Z,4.20
2023-07-23T02:04:44.779Z,4.00
2023-07-23T02:05:44.733Z,5.20
2023-07-23T02:06:44.650Z,4.00
2023-07-23T02:07:44.636Z,5.20
2023-07-23T02:08:44.536Z,5.00
2023-07-23T02:09:44.515Z,4.80
2023-07-23T02:10:44.465Z,5.10
2023-07-23T02:11:44.352Z,4.40
2023-07-23T02:12:44.304Z,4.50
2023-07-23T02:13:44.247Z,4.60
2023-07-23T02:14:44.163Z,4.50
2023-07-23T02:15:44.107Z,5.00
2023-07-23T02:16:44.078Z,4.90
2023-07-23T02:17:44.030Z,6.30
2023-07-23T02:18:43.952Z,4.40
2023-07-23T02:19:43.870Z,4.80
2023-07-23T02:20:43.806Z,4.40
2023-07-23T02:21:43.748Z,5.10
2023-07-23T02:22:43.681Z,4.50
2023-07-23T02:23:43.644Z,5.50
2023-07-23T02:24:43.575Z,5.40
2023-07-23T02:25:43.492Z,5.10
2023-07-23T02:26:43.430Z,4.20
2023-07-23T02:27:43.370Z,6.30
2023-07-23T02:28:43.309Z,4.50
2023-07-23T02:29:43.259Z,4.40
2023-07-23T02:30:43.234Z,4.90
2023-07-23T02:31:43.129Z,5.30
2023-07-23T02:32:43.088Z,4.80
2023-07-23T02:33:43.005Z,4.60
2023-07-23T02:34:42.926Z,4.40
2023-07-23T02:35:42.875Z,5.00
2023-07-23T02:36:42.833Z,5.20
2023-07-23T02:37:42.760Z,5.10
2023-07-23T02:38:42.693Z,5.00
2023-07-23T02:39:42.625Z,4.50
2023-07-23T02:40:42.590Z,5.40
2023-07-23T02:41:42.512Z,5.40
2023-07-23T02:42:42.442Z,5.40
2023-07-23T02:43:42.385Z,4.80
2023-07-23T02:44:42.343Z,4.70
2023-07-23T02:45:42.253Z,5.20
2023-07-23T02:46:42.328Z,5.30
2023-07-23T02:47:42.174Z,4.90
2023-07-23T02:48:42.090Z,5.00
2023-07-23T02:49:42.025Z,5.00
2023-07-23T02:50:41.956Z,4.60
2023-07-23T02:51:41.905Z,4.90
2023-07-23T02:52:41.821Z,4.90
2023-07-23T02:53:41.777Z,4.90
2023-07-23T02:54:41.722Z,4.70
2023-07-23T02:55:41.672Z,5.00
2023-07-23T02:56:41.587Z,5.30
2023-07-23T02:57:41.592Z,4.60
2023-07-23T02:58:41.459Z,5.20
2023-07-23T02:59:41.388Z,5.10
2023-07-23T03:00:41.329Z,4.80
2023-07-23T03:01:41.313Z,5.20
2023-07-23T03:02:41.340Z,5.10
2023-07-23T03:03:41.161Z,5.00
2023-07-23T03:04:41.082Z,5.30
2023-07-23T03:05:41.025Z,5.40
2023-07-23T03:06:40.998Z,5.20
2023-07-23T03:07:40.906Z,4.70
2023-07-23T03:08:40.859Z,5.00
2023-07-23T03:09:40.818Z,5.40
2023-07-23T03:10:40.735Z,5.50
2023-07-23T03:11:40.655Z,5.10
2023-07-23T03:12:40.618Z,5.30
2023-07-23T03:13:40.528Z,5.20
2023-07-23T03:14:40.459Z,4.70
2023-07-23T03:15:40.406Z,5.20
2023-07-23T03:16:40.394Z,5.10
2023-07-23T03:17:40.302Z,5.40
2023-07-23T03:18:40.217Z,6.80
2023-07-23T03:19:40.177Z,5.30
2023-07-23T03:20:40.125Z,5.10
2023-07-23T03:21:40.042Z,4.80
2023-07-23T03:22:39.977Z,6.20
2023-07-23T03:23:39.929Z,5.50
2023-07-23T03:24:39.871Z,5.60
2023-07-23T03:25:39.814Z,4.90
2023-07-23T03:26:39.735Z,6.50
2023-07-23T03:27:39.670Z,5.10
2023-07-23T03:28:39.622Z,5.40
2023-07-23T03:29:39.556Z,4.90
2023-07-23T03:30:39.481Z,5.30
2023-07-23T03:31:39.450Z,5.10
2023-07-23T03:32:39.458Z,5.50
2023-07-23T03:33:39.317Z,5.10
2023-07-23T03:34:39.242Z,5.90
2023-07-23T03:35:39.175Z,5.20
2023-07-23T03:36:39.108Z,5.60
2023-07-23T03:37:39.095Z,5.20
2023-07-23T03:38:38.995Z,4.90
2023-07-23T03:39:38.941Z,5.90
2023-07-23T03:40:38.864Z,5.30
2023-07-23T03:41:38.817Z,5.30
2023-07-23T03:42:38.751Z,5.40
2023-07-23T03:43:38.683Z,5.50
2023-07-23T03:44:38.614Z,5.90
2023-07-23T03:45:38.633Z,5.30
2023-07-23T03:46:38.507Z,5.40
2023-07-23T03:47:38.456Z,5.50
2023-07-23T03:48:38.374Z,5.10
2023-07-23T03:49:38.306Z,5.60
2023-07-23T03:50:38.248Z,5.40
2023-07-23T03:51:38.178Z,6.00
2023-07-23T03:52:38.125Z,5.50
2023-07-23T03:53:38.056Z,5.10
2023-07-23T03:54:38.001Z,5.50
2023-07-23T03:55:37.953Z,5.60
2023-07-23T03:56:37.867Z,6.60
2023-07-23T03:57:38.494Z,5.60
2023-07-23T03:58:37.753Z,5.60
2023-07-23T03:59:37.692Z,5.70
2023-07-23T04:00:37.623Z,6.40
2023-07-23T04:01:37.577Z,5.50
2023-07-23T04:02:37.515Z,5.20
2023-07-23T04:03:37.489Z,5.10
2023-07-23T04:04:37.406Z,5.50
2023-07-23T04:05:37.338Z,5.60
2023-07-23T04:06:37.282Z,5.30
2023-07-23T04:07:37.197Z,5.90
2023-07-23T04:08:37.160Z,5.80
2023-07-23T04:09:37.080Z,5.60
2023-07-23T04:10:37.005Z,5.20
2023-07-23T04:11:36.944Z,5.50
2023-07-23T04:12:36.885Z,5.90
2023-07-23T04:13:36.823Z,5.60
2023-07-23T04:14:36.756Z,6.70
2023-07-23T04:15:36.705Z,5.80
2023-07-23T04:16:36.665Z,5.10
2023-07-23T04:17:36.579Z,5.30
2023-07-23T04:18:36.513Z,6.30
2023-07-23T04:19:36.462Z,5.80
2023-07-23T04:20:36.375Z,5.60
2023-07-23T04:21:36.325Z,5.50
2023-07-23T04:22:36.284Z,5.50
2023-07-23T04:23:36.200Z,5.00
2023-07-23T04:24:36.163Z,5.50
2023-07-23T04:25:36.076Z,5.70
2023-07-23T04:26:36.022Z,5.50
2023-07-23T04:27:35.941Z,6.00
2023-07-23T04:28:35.876Z,5.50
2023-07-23T04:29:35.819Z,5.80
2023-07-23T04:30:35.760Z,5.80
2023-07-23T04:31:35.727Z,5.60
2023-07-23T04:32:35.660Z,5.10
2023-07-23T04:33:35.572Z,5.00
2023-07-23T04:34:35.501Z,5.60
2023-07-23T04:35:35.464Z,5.40
2023-07-23T04:36:35.433Z,5.40
2023-07-23T04:37:35.314Z,5.90
2023-07-23T04:38:35.258Z,5.60
2023-07-23T04:39:35.194Z,5.80
2023-07-23T04:40:35.150Z,5.40
2023-07-23T04:41:35.074Z,5.00
2023-07-23T04:42:35.018Z,4.60
2023-07-23T04:43:34.954Z,7.40
2023-07-23T04:44:34.881Z,5.80
2023-07-23T04:45:34.876Z,5.30
2023-07-23T04:46:34.755Z,5.90
2023-07-23T04:47:34.733Z,6.40
2023-07-23T04:48:34.653Z,5.60
2023-07-23T04:49:34.589Z,6.40
2023-07-23T04:50:34.511Z,5.40
2023-07-23T04:51:34.457Z,6.60
2023-07-23T04:52:34.387Z,6.70
2023-07-23T04:53:34.328Z,6.70
2023-07-23T04:54:34.264Z,5.10
2023-07-23T04:55:34.213Z,5.40
2023-07-23T04:56:34.144Z,5.80
2023-07-23T04:57:34.086Z,5.60
2023-07-23T04:58:34.008Z,5.60
2023-07-23T04:59:33.947Z,5.30
2023-07-23T05:00:33.884Z,5.40
2023-07-23T05:01:33.843Z,5.40
2023-07-23T05:02:33.835Z,5.80
2023-07-23T05:03:33.743Z,5.40
2023-07-23T05:04:33.649Z,5.80
2023-07-23T05:05:33.614Z,5.20
2023-07-23T05:06:33.529Z,5.30
2023-07-23T05:07:33.461Z,5.10
2023-07-23T05:08:33.404Z,5.00
2023-07-23T05:09:33.348Z,5.60
2023-07-23T05:10:33.286Z,5.30
2023-07-23T05:11:33.220Z,5.30
2023-07-23T05:12:33.175Z,5.20
2023-07-23T05:13:33.112Z,6.00
2023-07-23T05:14:33.031Z,5.10
2023-07-23T05:15:32.993Z,5.30
2023-07-23T05:16:32.903Z,5.10
2023-07-23T05:17:32.879Z,5.20
2023-07-23T05:18:32.816Z,5.10
2023-07-23T05:19:32.726Z,5.30
2023-07-23T05:20:32.660Z,5.60
2023-07-23T05:21:32.636Z,5.80
2023-07-23T05:22:34.056Z,6.40
2023-07-23T05:23:32.476Z,5.30
2023-07-23T05:24:32.438Z,5.70
2023-07-23T05:25:32.361Z,5.10
2023-07-23T05:26:32.293Z,5.40
2023-07-23T05:27:32.249Z,4.90
2023-07-23T05:28:32.168Z,5.70
2023-07-23T05:29:32.098Z,5.10
2023-07-23T05:30:32.041Z,4.50
2023-07-23T05:31:32.128Z,4.70
2023-07-23T05:32:31.955Z,5.10
2023-07-23T05:33:31.852Z,5.10
2023-07-23T05:34:31.834Z,5.00
2023-07-23T05:35:31.728Z,5.30
2023-07-23T05:36:31.669Z,6.50
2023-07-23T05:37:31.641Z,5.10
2023-07-23T05:38:31.553Z,5.20
2023-07-23T05:39:31.494Z,4.90
2023-07-23T05:40:31.428Z,5.30
2023-07-23T05:41:31.705Z,5.00
2023-07-23T05:42:31.309Z,5.60
2023-07-23T05:43:31.235Z,5.70
2023-07-23T05:44:31.240Z,5.70
2023-07-23T05:45:31.240Z,5.60
2023-07-23T05:46:31.081Z,5.00
2023-07-23T05:47:31.155Z,5.70
2023-07-23T05:48:30.952Z,5.30
2023-07-23T05:49:30.890Z,5.50
2023-07-23T05:50:30.868Z,4.80
2023-07-23T05:51:30.993Z,4.40
2023-07-23T05:52:30.691Z,3.80
2023-07-23T05:53:30.632Z,4.50
2023-07-23T05:54:30.554Z,4.40
2023-07-23T05:55:30.522Z,4.40
2023-07-23T05:56:30.433Z,4.70
2023-07-23T05:57:30.383Z,4.70
2023-07-23T05:58:30.335Z,4.10
2023-07-23T05:59:30.265Z,4.10
2023-07-23T06:00:30.245Z,6.00
2023-07-23T06:01:30.415Z,5.10
2023-07-23T06:02:30.114Z,5.10
2023-07-23T06:03:39.893Z,4.70
2023-07-23T06:04:30.002Z,4.60
2023-07-23T06:05:29.895Z,4.70
2023-07-23T06:06:29.828Z,4.70
2023-07-23T06:07:29.769Z,5.00
2023-07-23T06:08:29.740Z,4.40
2023-07-23T06:09:29.715Z,4.30
2023-07-23T06:10:29.646Z,4.30
2023-07-23T06:11:29.806Z,4.30
2023-07-23T06:12:29.463Z,4.40
2023-07-23T06:13:29.444Z,4.00
2023-07-23T06:14:29.419Z,4.10
2023-07-23T06:15:29.297Z,4.20
2023-07-23T06:16:29.235Z,3.70
2023-07-23T06:17:29.191Z,4.30
2023-07-23T06:18:29.106Z,4.10
2023-07-23T06:19:29.031Z,4.80
2023-07-23T06:20:29.029Z,5.00
2023-07-23T06:21:29.145Z,5.10
2023-07-23T06:22:28.861Z,5.50
2023-07-23T06:23:28.819Z,4.60
2023-07-23T06:24:28.769Z,5.40
2023-07-23T06:25:28.675Z,4.90
2023-07-23T06:26:28.632Z,4.60
2023-07-23T06:27:28.553Z,4.90
2023-07-23T06:28:28.495Z,4.70
2023-07-23T06:29:28.434Z,4.40
2023-07-23T06:30:28.362Z,4.90
2023-07-23T06:31:28.525Z,4.40
2023-07-23T06:32:28.273Z,4.80
2023-07-23T06:33:28.184Z,4.50
2023-07-23T06:34:28.130Z,4.20
2023-07-23T06:35:28.048Z,4.00
2023-07-23T06:36:28.005Z,4.00
2023-07-23T06:37:27.939Z,4.20
2023-07-23T06:38:27.889Z,3.60
2023-07-23T06:39:27.815Z,3.30
2023-07-23T06:40:27.758Z,3.60
2023-07-23T06:41:28.134Z,5.70
2023-07-23T06:42:27.642Z,3.50
2023-07-23T06:43:27.583Z,3.40
2023-07-23T06:44:27.513Z,3.60
2023-07-23T06:45:27.452Z,4.10
2023-07-23T06:46:27.407Z,4.80
2023-07-23T06:47:27.352Z,4.50
2023-07-23T06:48:27.273Z,4.40
2023-07-23T06:49:27.214Z,4.70
2023-07-23T06:50:27.154Z,5.80
2023-07-23T06:51:27.524Z,11.80
2023-07-23T06:52:27.031Z,6.90
2023-07-23T06:53:27.012Z,10.70
2023-07-23T06:54:26.906Z,7.40
2023-07-23T06:55:26.848Z,5.60
2023-07-23T06:56:26.804Z,5.20
2023-07-23T06:57:26.730Z,4.70
2023-07-23T06:58:26.661Z,3.40
2023-07-23T06:59:26.645Z,4.10
2023-07-23T07:00:26.569Z,4.30
2023-07-23T07:01:26.917Z,4.50
2023-07-23T07:02:26.449Z,4.10
2023-07-23T07:03:26.437Z,3.80
2023-07-23T07:04:27.790Z,3.90
2023-07-23T07:05:26.255Z,4.50
2023-07-23T07:06:26.174Z,3.80
2023-07-23T07:07:26.123Z,4.30
2023-07-23T07:08:26.052Z,3.90
2023-07-23T07:09:25.992Z,4.70
2023-07-23T07:10:26.032Z,4.20
2023-07-23T07:11:26.096Z,4.20
2023-07-23T07:12:25.821Z,5.30
2023-07-23T07:13:25.747Z,8.20
2023-07-23T07:14:25.693Z,7.20
2023-07-23T07:15:25.634Z,4.50
2023-07-23T07:16:25.593Z,3.70
2023-07-23T07:17:25.547Z,4.00
2023-07-23T07:18:25.457Z,4.00
2023-07-23T07:19:25.388Z,4.80
2023-07-23T07:20:25.336Z,4.30
2023-07-23T07:21:25.286Z,4.40
2023-07-23T07:22:25.242Z,4.10
2023-07-23T07:23:25.162Z,4.30
2023-07-23T07:24:25.117Z,4.30
2023-07-23T07:25:25.059Z,4.90
2023-07-23T07:26:24.985Z,5.70
2023-07-23T07:27:24.922Z,4.70
2023-07-23T07:28:24.873Z,6.30
2023-07-23T07:29:24.804Z,5.00
2023-07-23T07:30:24.803Z,4.30
2023-07-23T07:31:24.728Z,4.00
2023-07-23T07:32:24.644Z,4.70
2023-07-23T07:33:24.564Z,4.10
2023-07-23T07:34:24.498Z,4.20
2023-07-23T07:35:24.457Z,4.30
2023-07-23T07:36:24.376Z,4.20
2023-07-23T07:37:24.355Z,4.20
2023-07-23T07:38:24.294Z,3.50
2023-07-23T07:39:24.199Z,4.30
2023-07-23T07:40:24.146Z,4.00
2023-07-23T07:41:24.088Z,4.30
2023-07-23T07:42:24.034Z,4.20
2023-07-23T07:43:23.952Z,3.90
2023-07-23T07:44:23.913Z,3.60
2023-07-23T07:45:23.849Z,3.80
2023-07-23T07:46:23.799Z,4.00
2023-07-23T07:47:23.767Z,3.90
2023-07-23T07:48:23.660Z,4.10
2023-07-23T07:49:23.594Z,3.90
2023-07-23T07:50:23.667Z,4.00
2023-07-23T07:51:23.498Z,3.70
2023-07-23T07:52:23.457Z,3.30
2023-07-23T07:53:23.402Z,3.20
2023-07-23T07:54:23.309Z,3.70
2023-07-23T07:55:23.288Z,3.30
2023-07-23T07:56:23.201Z,3.00
2023-07-23T07:57:23.144Z,3.40
2023-07-23T07:58:23.080Z,4.00
2023-07-23T07:59:23.006Z,3.70
2023-07-23T08:00:23.019Z,3.20
2023-07-23T08:01:22.906Z,3.30
2023-07-23T08:02:22.984Z,3.40
2023-07-23T08:04:22.825Z,3.50
2023-07-23T08:05:22.790Z,3.40
2023-07-23T08:06:22.597Z,3.10
2023-07-23T08:07:22.530Z,3.30
2023-07-23T08:08:22.477Z,2.90
2023-07-23T08:09:22.424Z,2.90
2023-07-23T08:10:22.428Z,3.40
2023-07-23T08:11:22.309Z,3.40
2023-07-23T08:12:22.277Z,5.20
2023-07-23T08:13:22.186Z,4.10
2023-07-23T08:14:22.128Z,3.40
2023-07-23T08:15:22.083Z,3.40
2023-07-23T08:16:22.101Z,3.50
2023-07-23T08:17:21.969Z,3.20
2023-07-23T08:18:21.894Z,4.30
2023-07-23T08:19:21.885Z,3.30
2023-07-23T08:20:21.889Z,3.20
2023-07-23T08:21:21.733Z,4.60
2023-07-23T08:22:21.702Z,3.50
2023-07-23T08:23:21.641Z,3.70
2023-07-23T08:24:21.555Z,4.30
2023-07-23T08:25:21.464Z,5.40
2023-07-23T08:26:21.430Z,4.20
2023-07-23T08:27:21.371Z,3.00
2023-07-23T08:28:21.389Z,3.50
2023-07-23T08:29:21.258Z,3.40
2023-07-23T08:30:21.179Z,3.60
2023-07-23T08:31:21.147Z,4.60
2023-07-23T08:32:21.225Z,4.70
2023-07-23T08:33:21.064Z,4.10
2023-07-23T08:34:20.987Z,3.50
2023-07-23T08:35:20.881Z,3.30
2023-07-23T08:36:20.828Z,3.30
2023-07-23T08:37:20.787Z,3.70
2023-07-23T08:38:20.711Z,4.10
2023-07-23T08:39:20.654Z,3.80
2023-07-23T08:40:20.615Z,3.50
2023-07-23T08:41:20.545Z,4.80
2023-07-23T08:42:20.480Z,3.60
2023-07-23T08:43:20.462Z,3.20
2023-07-23T08:44:20.378Z,3.90
2023-07-23T08:45:20.309Z,4.10
2023-07-23T08:46:20.292Z,3.00
2023-07-23T08:47:20.181Z,4.00
2023-07-23T08:48:20.106Z,5.20
2023-07-23T08:49:20.047Z,4.00
2023-07-23T08:50:20.021Z,4.20
2023-07-23T08:51:19.939Z,3.50
2023-07-23T08:52:19.870Z,3.90
2023-07-23T08:53:19.943Z,4.40
2023-07-23T08:54:19.759Z,3.40
2023-07-23T08:55:19.705Z,5.90
2023-07-23T08:56:19.642Z,4.50
2023-07-23T08:57:19.586Z,3.70
2023-07-23T08:58:19.518Z,4.00
2023-07-23T08:59:19.461Z,3.40
2023-07-23T09:00:19.423Z,3.40
2023-07-23T09:01:19.379Z,3.60
2023-07-23T09:02:19.299Z,4.10
2023-07-23T09:03:19.460Z,4.20
2023-07-23T09:04:19.188Z,3.60
2023-07-23T09:05:19.121Z,3.50
2023-07-23T09:06:19.053Z,3.00
2023-07-23T09:07:18.985Z,3.20
2023-07-23T09:08:18.954Z,4.40
2023-07-23T09:09:18.896Z,3.60
2023-07-23T09:10:18.818Z,4.40
2023-07-23T09:11:18.766Z,5.90
2023-07-23T09:12:18.709Z,4.40
2023-07-23T09:13:18.678Z,3.40
2023-07-23T09:14:18.624Z,3.80
2023-07-23T09:15:18.531Z,3.70
2023-07-23T09:16:18.485Z,3.40
2023-07-23T09:17:18.420Z,3.30
2023-07-23T09:18:18.366Z,3.30
2023-07-23T09:19:18.292Z,3.80
2023-07-23T09:20:18.279Z,5.30
2023-07-23T09:21:18.750Z,3.10
2023-07-23T09:22:18.134Z,3.70
2023-07-23T09:23:18.078Z,3.40
2023-07-23T09:24:18.086Z,3.50
2023-07-23T09:25:17.956Z,3.20
2023-07-23T09:26:17.896Z,3.80
2023-07-23T09:27:17.844Z,4.50
2023-07-23T09:28:17.779Z,3.00
2023-07-23T09:29:17.742Z,3.50
2023-07-23T09:30:17.674Z,3.10
2023-07-23T09:31:17.633Z,3.90
2023-07-23T09:32:17.570Z,3.70
2023-07-23T09:33:17.501Z,3.60
2023-07-23T09:34:17.432Z,4.40
2023-07-23T09:35:17.365Z,4.40
2023-07-23T09:36:17.317Z,3.70
2023-07-23T09:37:17.270Z,3.30
2023-07-23T09:38:19.935Z,3.20
2023-07-23T09:39:17.145Z,3.20
2023-07-23T09:40:17.085Z,4.40
2023-07-23T09:41:17.025Z,4.90
2023-07-23T09:42:16.970Z,4.00
2023-07-23T09:43:16.930Z,3.50
2023-07-23T09:44:18.815Z,3.40
2023-07-23T09:45:16.801Z,3.50
2023-07-23T09:46:16.790Z,3.80
2023-07-23T09:47:16.705Z,3.50
2023-07-23T09:48:17.576Z,3.30
2023-07-23T09:49:16.568Z,3.70
2023-07-23T09:50:18.218Z,2.90
2023-07-23T09:51:16.455Z,3.00
2023-07-23T09:52:16.399Z,3.70
2023-07-23T09:53:16.362Z,3.30
2023-07-23T09:54:16.273Z,3.50
2023-07-23T09:55:16.242Z,3.20
2023-07-23T09:56:16.170Z,4.10
2023-07-23T09:57:16.128Z,3.30
2023-07-23T09:58:16.043Z,3.80
2023-07-23T09:59:15.988Z,3.30
2023-07-23T10:00:15.968Z,3.20
2023-07-23T10:01:15.904Z,3.00
2023-07-23T10:02:15.869Z,2.70
2023-07-23T10:03:15.842Z,3.90
2023-07-23T10:04:15.708Z,3.10
2023-07-23T10:05:15.648Z,3.60
2023-07-23T10:06:15.600Z,3.30
2023-07-23T10:07:15.548Z,3.20
2023-07-23T10:08:15.493Z,3.60
2023-07-23T10:09:15.433Z,3.40
2023-07-23T10:10:15.369Z,3.60
2023-07-23T10:11:15.314Z,4.10
2023-07-23T10:12:15.236Z,3.50
2023-07-23T10:13:15.222Z,3.80
2023-07-23T10:14:15.147Z,3.80
2023-07-23T10:15:15.091Z,3.60
2023-07-23T10:16:15.028Z,3.30
2023-07-23T10:17:14.990Z,3.50
2023-07-23T10:18:14.918Z,3.20
2023-07-23T10:19:14.860Z,3.00
2023-07-23T10:20:14.810Z,5.90
2023-07-23T10:21:14.755Z,4.20
2023-07-23T10:22:14.682Z,3.40
2023-07-23T10:23:14.621Z,3.90
2023-07-23T10:24:14.592Z,4.60
2023-07-23T10:25:28.798Z,3.10
2023-07-23T10:26:14.442Z,3.40
2023-07-23T10:27:14.389Z,3.90
2023-07-23T10:28:14.338Z,4.30
2023-07-23T10:29:14.349Z,3.90
2023-07-23T10:30:14.243Z,3.90
2023-07-23T10:31:14.207Z,4.30
2023-07-23T10:32:14.118Z,3.70
2023-07-23T10:33:14.055Z,3.40
2023-07-23T10:34:14.000Z,3.30
2023-07-23T10:35:13.963Z,5.00
2023-07-23T10:36:13.886Z,3.60
2023-07-23T10:37:13.859Z,4.90
2023-07-23T10:38:13.793Z,4.10
2023-07-23T10:39:13.740Z,3.50
2023-07-23T10:40:13.678Z,3.10
2023-07-23T10:41:13.619Z,4.10
2023-07-23T10:42:13.551Z,2.60
2023-07-23T10:43:13.556Z,3.50
2023-07-23T10:44:13.456Z,3.30
2023-07-23T10:45:13.387Z,3.20
2023-07-23T10:46:13.348Z,3.30
2023-07-23T10:47:13.271Z,3.20
2023-07-23T10:48:13.216Z,5.20
2023-07-23T10:49:13.155Z,4.00
2023-07-23T10:50:13.119Z,3.80
2023-07-23T10:51:13.071Z,3.10
2023-07-23T10:52:12.989Z,4.00
2023-07-23T10:53:12.926Z,3.60
2023-07-23T10:54:12.890Z,3.10
2023-07-23T10:55:13.730Z,3.70
2023-07-23T10:56:12.783Z,2.60
2023-07-23T10:57:12.725Z,2.70
2023-07-23T10:58:12.726Z,3.50
2023-07-23T10:59:12.615Z,3.10
2023-07-23T11:00:12.548Z,2.70
2023-07-23T11:01:12.518Z,2.30
2023-07-23T11:02:12.424Z,3.40
2023-07-23T11:03:12.489Z,4.00
2023-07-23T11:04:12.332Z,2.70
2023-07-23T11:05:12.311Z,2.70
2023-07-23T11:06:12.261Z,3.00
2023-07-23T11:07:12.159Z,2.70
2023-07-23T11:08:12.109Z,3.30
2023-07-23T11:09:12.051Z,2.60
2023-07-23T11:10:11.992Z,2.90
2023-07-23T11:11:11.967Z,2.70
2023-07-23T11:12:11.898Z,3.10
2023-07-23T11:13:11.865Z,2.70
2023-07-23T11:14:11.788Z,2.40
2023-07-23T11:15:11.745Z,2.50
2023-07-23T11:16:11.711Z,2.10
2023-07-23T11:17:11.635Z,3.30
2023-07-23T11:18:11.605Z,2.60
2023-07-23T11:19:11.554Z,2.70
2023-07-23T11:20:11.477Z,2.30
2023-07-23T11:21:11.423Z,2.70
2023-07-23T11:22:11.379Z,2.40
2023-07-23T11:23:11.332Z,2.80
2023-07-23T11:24:11.286Z,2.40
2023-07-23T11:25:11.216Z,2.90
2023-07-23T11:26:11.170Z,2.90
2023-07-23T11:27:11.124Z,2.80
2023-07-23T11:28:11.097Z,2.50
2023-07-23T11:29:10.999Z,2.80
2023-07-23T11:30:10.949Z,2.80
2023-07-23T11:31:10.964Z,3.10
2023-07-23T11:32:10.843Z,2.80
2023-07-23T11:33:10.801Z,3.20
2023-07-23T11:34:10.735Z,2.90
2023-07-23T11:35:10.703Z,3.10
2023-07-23T11:36:10.648Z,3.60
2023-07-23T11:37:10.580Z,3.70
2023-07-23T11:38:10.529Z,2.90
2023-07-23T11:39:10.481Z,3.10
2023-07-23T11:40:10.428Z,3.20
2023-07-23T11:41:10.354Z,2.70
2023-07-23T11:42:10.353Z,2.80
2023-07-23T11:43:10.278Z,3.00
2023-07-23T11:44:10.206Z,3.20
2023-07-23T11:45:10.184Z,3.60
2023-07-23T11:46:10.188Z,2.90
2023-07-23T11:47:10.040Z,2.60
2023-07-23T11:48:09.973Z,2.80
2023-07-23T11:49:09.963Z,2.60
2023-07-23T11:50:09.897Z,2.80
2023-07-23T11:51:09.828Z,2.80
2023-07-23T11:52:09.790Z,2.80
2023-07-23T11:53:09.712Z,4.20
2023-07-23T11:54:09.671Z,3.60
2023-07-23T11:55:09.635Z,2.90
2023-07-23T11:56:09.551Z,3.10
2023-07-23T11:57:09.536Z,3.10
2023-07-23T11:58:09.547Z,2.80
2023-07-23T11:59:09.406Z,3.20
2023-07-23T12:00:09.353Z,2.30
2023-07-23T12:01:09.325Z,2.60
2023-07-23T12:02:09.243Z,2.60
2023-07-23T12:03:09.307Z,2.30
2023-07-23T12:04:09.147Z,2.50
2023-07-23T12:05:09.099Z,3.20
2023-07-23T12:06:09.105Z,2.30
2023-07-23T12:07:08.998Z,2.40
2023-07-23T12:08:09.003Z,2.70
2023-07-23T12:09:08.865Z,2.20
2023-07-23T12:10:08.849Z,2.20
2023-07-23T12:11:08.758Z,2.10
2023-07-23T12:12:08.717Z,2.20
2023-07-23T12:13:08.662Z,2.10
2023-07-23T12:14:08.629Z,2.40
2023-07-23T12:15:08.561Z,2.20
2023-07-23T12:16:08.547Z,2.30
2023-07-23T12:17:08.455Z,2.60
2023-07-23T12:18:08.406Z,2.50
2023-07-23T12:19:08.337Z,2.90
2023-07-23T12:20:08.282Z,2.70
2023-07-23T12:21:08.231Z,2.50
2023-07-23T12:22:08.191Z,3.60
2023-07-23T12:23:08.114Z,3.60
2023-07-23T12:24:08.066Z,2.50
2023-07-23T12:25:08.006Z,2.40
2023-07-23T12:26:07.958Z,2.70
2023-07-23T12:27:07.910Z,2.30
2023-07-23T12:28:07.840Z,2.80
2023-07-23T12:29:07.813Z,2.40
2023-07-23T12:30:07.748Z,3.50
2023-07-23T12:31:07.708Z,2.60
2023-07-23T12:32:07.650Z,2.60
2023-07-23T12:33:07.576Z,2.40
2023-07-23T12:34:07.549Z,2.60
2023-07-23T12:35:07.472Z,2.40
2023-07-23T12:36:07.400Z,2.90
2023-07-23T12:37:07.356Z,2.40
2023-07-23T12:38:07.325Z,2.60
2023-07-23T12:39:07.240Z,2.30
2023-07-23T12:40:07.195Z,3.10
2023-07-23T12:41:07.131Z,2.20
2023-07-23T12:42:07.177Z,2.70
2023-07-23T12:43:07.058Z,3.90
2023-07-23T12:44:07.012Z,2.20
2023-07-23T12:45:06.936Z,2.20
2023-07-23T12:46:06.975Z,2.50
2023-07-23T12:47:06.820Z,2.90
2023-07-23T12:48:06.773Z,3.50
2023-07-23T12:49:06.720Z,2.30
2023-07-23T12:50:06.659Z,2.50
2023-07-23T12:51:06.586Z,3.10
2023-07-23T12:52:06.557Z,2.60
2023-07-23T12:53:06.477Z,2.30
2023-07-23T12:54:06.425Z,2.70
2023-07-23T12:55:06.409Z,3.00
2023-07-23T12:56:06.322Z,2.70
2023-07-23T12:57:08.333Z,2.50
2023-07-23T12:58:06.241Z,3.10
2023-07-23T12:59:06.247Z,3.00
2023-07-23T13:00:06.155Z,2.40
2023-07-23T13:01:06.071Z,3.30
2023-07-23T13:02:05.978Z,3.90
2023-07-23T13:03:07.930Z,3.90
2023-07-23T13:04:05.960Z,3.00
2023-07-23T13:05:05.818Z,3.70
2023-07-23T13:06:05.753Z,4.40
2023-07-23T13:07:05.797Z,3.00
2023-07-23T13:08:05.693Z,2.80
2023-07-23T13:09:07.262Z,2.80
2023-07-23T13:10:05.555Z,3.60
2023-07-23T13:11:05.493Z,3.10
2023-07-23T13:12:05.447Z,3.30
2023-07-23T13:13:05.368Z,2.80
2023-07-23T13:14:05.332Z,2.50
2023-07-23T13:15:06.656Z,2.90
2023-07-23T13:16:05.204Z,3.30
2023-07-23T13:17:05.178Z,2.40
2023-07-23T13:18:05.153Z,2.80
2023-07-23T13:19:05.034Z,3.50